^^
Datos históricos de la estación: Murcia-Puente Tocinos
Diario Informe para Junio 17, 2019 Unidades:  Métrico    Ingés   Ambas
Diario Semanal Mensual Anual
  Máxima: Mínima: Promedio:
Temperatura: 30.7 °C 17.1 °C 23.8 °C
Punto de rocio: 15.7 °C 8.7 °C 12.2 °C
Humedad: 73.8% 26% 51%
Velocidad viento: 19.8km/h 0km/h 8.6km/h
Racha viento: 33.8km/h - -
Viento- - SSE
Presión: 1017.2 hPa 1012.6 hPa -
Precipitación: 0.0 mm    
 
 
Tabla de datos para Junio 17, 2019
Hora Temperatura Punto de rocio Presión Viento Velocidad viento Racha viento Humedad Intensidad lluvia(por hora) Nubes
00:04 20.8 °C 15.1 °C 1017.1 hPa Este 2.9 km/h 3.9 km/h 70% 0.0 mm
00:09 20.7 °C 15.2 °C 1017.1 hPa NNE 2.7 km/h 5.6 km/h 70.7% 0.0 mm
00:14 20.6 °C 15.1 °C 1017.1 hPa NNE 2.2 km/h 5.6 km/h 70.8% 0.0 mm
00:19 20.4 °C 14.7 °C 1017.1 hPa NE 2.2 km/h 5.8 km/h 70% 0.0 mm
00:24 20.3 °C 14.7 °C 1017.1 hPa Este 2.2 km/h 6.4 km/h 70% 0.0 mm
00:29 20.3 °C 14.8 °C 1017.1 hPa Este 1.5 km/h 4.8 km/h 70.7% 0.0 mm
00:34 20.2 °C 14.6 °C 1017.2 hPa Calm   7.4 km/h 70.4% 0.0 mm
00:39 20.2 °C 14.6 °C 1017.2 hPa Este 0.6 km/h 8 km/h 70% 0.0 mm
00:44 20.1 °C 14.4 °C 1017.2 hPa ESE 2.9 km/h 8.4 km/h 69.9% 0.0 mm
00:49 20.1 °C 14.3 °C 1017.2 hPa ESE 3.5 km/h 8.4 km/h 69.4% 0.0 mm
00:54 19.9 °C 14.2 °C 1017.2 hPa ESE 4.7 km/h 9.3 km/h 69.6% 0.0 mm
00:59 19.7 °C 14.1 °C 1017.2 hPa ESE 4.8 km/h 9.7 km/h 70% 0.0 mm
01:04 19.6 °C 14.2 °C 1017.2 hPa ESE 5 km/h 8.4 km/h 70.6% 0.0 mm
01:09 19.6 °C 14.2 °C 1017.2 hPa ESE 4.6 km/h 8 km/h 71% 0.0 mm
01:14 19.5 °C 14.1 °C 1017.2 hPa ESE 3.9 km/h 8 km/h 71% 0.0 mm
01:19 19.5 °C 14.1 °C 1017.2 hPa ESE 2.6 km/h 4.8 km/h 71% 0.0 mm
01:24 19.4 °C 14 °C 1017.2 hPa Calm   3.2 km/h 71% 0.0 mm
01:29 19.3 °C 14 °C 1017.2 hPa Calm   5.8 km/h 71% 0.0 mm
01:34 19.3 °C 13.7 °C 1017.2 hPa Calm   7.4 km/h 70.3% 0.0 mm
01:39 19.2 °C 13.8 °C 1017.1 hPa ESE 1.3 km/h 8 km/h 71% 0.0 mm
01:44 19.1 °C 13.7 °C 1017.1 hPa ESE 3.9 km/h 6.4 km/h 71% 0.0 mm
01:49 18.9 °C 13.6 °C 1017.1 hPa ESE 3.3 km/h 4.8 km/h 71.4% 0.0 mm
01:54 18.9 °C 13.5 °C 1017.0 hPa ESE 2.2 km/h   71.1% 0.0 mm
01:59 18.9 °C 13.7 °C 1017.0 hPa ESE 1.4 km/h 4.7 km/h 71.9% 0.0 mm
02:04 18.9 °C 13.7 °C 1017.0 hPa Calm   4.8 km/h 72% 0.0 mm
02:09 18.9 °C 13.7 °C 1016.9 hPa ESE 0.8 km/h 7.6 km/h 72% 0.0 mm
02:14 18.8 °C 13.8 °C 1016.9 hPa SE 2.2 km/h 8 km/h 72.6% 0.0 mm
02:19 18.8 °C 13.8 °C 1016.9 hPa SE 2.5 km/h 8 km/h 73% 0.0 mm
02:24 18.8 °C 13.8 °C 1016.8 hPa SE 2.9 km/h 4.8 km/h 73% 0.0 mm
02:29 18.8 °C 13.8 °C 1016.8 hPa SE 1.9 km/h   73% 0.0 mm
02:34 18.8 °C 13.7 °C 1016.8 hPa Calm     72.1% 0.0 mm
02:39 18.8 °C 13.7 °C 1016.7 hPa Calm     72% 0.0 mm
02:44 18.7 °C 13.6 °C 1016.7 hPa Calm     72% 0.0 mm
02:49 18.8 °C 13.5 °C 1016.7 hPa Calm     71.3% 0.0 mm
02:54 18.8 °C 13.4 °C 1016.6 hPa Calm     71% 0.0 mm
02:59 18.8 °C 13.4 °C 1016.6 hPa Calm     71% 0.0 mm
03:04 18.8 °C 13.4 °C 1016.6 hPa Calm     71% 0.0 mm
03:09 18.8 °C 13.4 °C 1016.5 hPa Calm     71% 0.0 mm
03:14 18.8 °C 13.4 °C 1016.5 hPa Calm   2.3 km/h 71% 0.0 mm
03:19 18.7 °C 13.2 °C 1016.5 hPa Calm   1.6 km/h 70.5% 0.0 mm
03:24 18.5 °C 13.2 °C 1016.5 hPa Calm     71% 0.0 mm
03:29 18.4 °C 13.1 °C 1016.5 hPa Calm   5.8 km/h 71% 0.0 mm
03:34 18.4 °C 13.1 °C 1016.5 hPa Calm   6.4 km/h 71% 0.0 mm
03:39 18.3 °C 13 °C 1016.4 hPa SSE 1.3 km/h 7.6 km/h 71% 0.0 mm
03:44 18.3 °C 12.9 °C 1016.4 hPa SSE 3.9 km/h 8 km/h 71% 0.0 mm
03:49 18.3 °C 12.9 °C 1016.4 hPa SSE 3.6 km/h 8 km/h 71% 0.0 mm
03:54 18.3 °C 12.9 °C 1016.3 hPa SSE 3.2 km/h 4.8 km/h 71% 0.0 mm
03:59 18.3 °C 13 °C 1016.3 hPa SSE 2 km/h   71.1% 0.0 mm
04:04 18.3 °C 13.2 °C 1016.3 hPa Calm   9.3 km/h 72% 0.0 mm
04:09 18.3 °C 13.2 °C 1016.3 hPa SO 1.6 km/h 9.7 km/h 72.2% 0.0 mm
04:14 18.4 °C 13.3 °C 1016.3 hPa SO 4.7 km/h 8 km/h 72% 0.0 mm
04:19 18.4 °C 13.3 °C 1016.3 hPa SO 3.8 km/h 6.4 km/h 72% 0.0 mm
04:24 18.4 °C 13.3 °C 1016.2 hPa SSO 2.2 km/h 8.4 km/h 72% 0.0 mm
04:29 18.3 °C 13.2 °C 1016.2 hPa Sur 2.6 km/h 8.4 km/h 72% 0.0 mm
04:34 18.3 °C 13.2 °C 1016.2 hPa SSO 3.2 km/h 8 km/h 72% 0.0 mm
04:39 18.3 °C 13.1 °C 1016.1 hPa SSO 3.2 km/h 8 km/h 72% 0.0 mm
04:44 18.2 °C 13.1 °C 1016.1 hPa SSO 3.2 km/h 8 km/h 72% 0.0 mm
04:49 18.2 °C 13.1 °C 1016.1 hPa SSO 3.2 km/h 8 km/h 72% 0.0 mm
04:54 18.2 °C 13 °C 1016.0 hPa SSO 3.2 km/h 6.4 km/h 72% 0.0 mm
04:59 18.1 °C 12.9 °C 1016.0 hPa SSO 2.8 km/h 4.8 km/h 72% 0.0 mm
05:04 18.1 °C 13.1 °C 1016.0 hPa SSO 2.2 km/h   72.9% 0.0 mm
05:09 17.9 °C 13.1 °C 1015.9 hPa SO 1.4 km/h 7.6 km/h 73% 0.0 mm
05:14 17.9 °C 13 °C 1015.9 hPa Calm   8.4 km/h 73% 0.0 mm
05:19 17.9 °C 13 °C 1015.9 hPa SO 1.4 km/h 8 km/h 73% 0.0 mm
05:24 17.9 °C 12.9 °C 1015.9 hPa SSO 3.9 km/h 8.4 km/h 72.5% 0.0 mm
05:29 17.9 °C 12.7 °C 1015.9 hPa SO 4.1 km/h 8 km/h 71.8% 0.0 mm
05:34 17.9 °C 12.7 °C 1015.9 hPa SSO 4.7 km/h 8.4 km/h 71.8% 0.0 mm
05:39 17.8 °C 12.7 °C 1015.8 hPa Sur 4.8 km/h 9.3 km/h 72% 0.0 mm
05:44 17.8 °C 12.7 °C 1015.8 hPa Sur 5 km/h 9.7 km/h 72% 0.0 mm
05:49 17.7 °C 12.6 °C 1015.9 hPa Sur 5.3 km/h 11.3 km/h 72% 0.0 mm
05:54 17.6 °C 12.4 °C 1015.9 hPa SSO 5.8 km/h 11.3 km/h 71.5% 0.0 mm
05:59 17.6 °C 12.5 °C 1015.9 hPa SSO 6.2 km/h 11.9 km/h 72% 0.0 mm
06:04 17.6 °C 12.4 °C 1015.9 hPa SSO 6.9 km/h 11.3 km/h 71.8% 0.0 mm
06:09 17.6 °C 12.3 °C 1015.9 hPa SSO 6.9 km/h 11.3 km/h 71% 0.0 mm
06:14 17.6 °C 12.3 °C 1015.9 hPa SSO 6.9 km/h 11.3 km/h 71% 0.0 mm
06:19 17.6 °C 12.2 °C 1015.9 hPa SSO 6.9 km/h 10 km/h 70.6% 0.0 mm
06:24 17.5 °C 12 °C 1015.9 hPa SSO 6.9 km/h 9.7 km/h 70% 0.0 mm
06:29 17.5 °C 11.9 °C 1015.9 hPa SSO 6.9 km/h 9.7 km/h 70% 0.0 mm
06:34 17.4 °C 11.9 °C 1015.9 hPa SSO 6.9 km/h 9.7 km/h 70% 0.0 mm
06:39 17.4 °C 12 °C 1015.9 hPa SO 6.5 km/h 11.1 km/h 70.4% 0.0 mm
06:44 17.4 °C 12.1 °C 1015.9 hPa SO 5.8 km/h 11.3 km/h 71% 0.0 mm
06:49 17.4 °C 12.1 °C 1015.9 hPa SO 6 km/h 13 km/h 71% 0.0 mm
06:54 17.4 °C 12.1 °C 1015.9 hPa SO 6.5 km/h 12.9 km/h 71% 0.0 mm
06:59 17.3 °C 12.1 °C 1015.9 hPa SSO 6.5 km/h 11.1 km/h 71% 0.0 mm
07:04 17.3 °C 11.9 °C 1016.1 hPa Sur 6.5 km/h 11.3 km/h 70.7% 0.0 mm
07:09 17.2 °C 11.9 °C 1016.1 hPa SSO 6.8 km/h 11.9 km/h 70.9% 0.0 mm
07:14 17.2 °C 11.9 °C 1016.1 hPa SSO 7.6 km/h 13 km/h 71% 0.0 mm
07:19 17.1 °C 11.9 °C 1016.1 hPa SSO 7.8 km/h 13 km/h 71.4% 0.0 mm
07:24 17.2 °C 12.1 °C 1016.0 hPa SO 8.4 km/h 11.3 km/h 72% 0.0 mm
07:29 17.3 °C 12.2 °C 1016.0 hPa SO 7.7 km/h 11.1 km/h 72% 0.0 mm
07:34 17.4 °C 12.3 °C 1016.2 hPa OSO 6.5 km/h 11.9 km/h 72% 0.0 mm
07:39 17.4 °C 12.3 °C 1016.2 hPa SO 6.6 km/h 14.8 km/h 72% 0.0 mm
07:44 17.4 °C 12.3 °C 1016.2 hPa SO 6.9 km/h 16.7 km/h 71.9% 0.0 mm
07:49 17.4 °C 12.1 °C 1016.4 hPa SO 7.8 km/h 16.1 km/h 71% 0.0 mm
07:54 17.4 °C 11.9 °C 1016.4 hPa SO 9.5 km/h 14.5 km/h 70.2% 0.0 mm
07:59 17.6 °C 11.9 °C 1016.4 hPa SO 8.7 km/h 12.9 km/h 69.4% 0.0 mm
08:04 17.8 °C 11.9 °C 1016.4 hPa SSO 6.9 km/h 11.1 km/h 68.6% 0.0 mm
08:09 17.8 °C 11.8 °C 1016.4 hPa SSO 6.5 km/h 11.3 km/h 68% 0.0 mm
08:14 17.9 °C 11.9 °C 1016.4 hPa SO 5.8 km/h 10 km/h 68% 0.0 mm
08:19 18 °C 11.9 °C 1016.6 hPa OSO 6 km/h 10.3 km/h 67.7% 0.0 mm
08:24 18.1 °C 11.9 °C 1016.6 hPa OSO 6.5 km/h 11.9 km/h 67% 0.0 mm
08:29 18.2 °C 11.7 °C 1016.6 hPa OSO 6.8 km/h 13.7 km/h 66.1% 0.0 mm
08:34 18.2 °C 11.8 °C 1016.6 hPa OSO 7.6 km/h 14.5 km/h 66% 0.0 mm
08:39 18.4 °C 11.7 °C 1016.6 hPa SO 7.3 km/h 12.9 km/h 65.2% 0.0 mm
08:44 18.6 °C 11.7 °C 1016.6 hPa OSO 6.9 km/h 12.9 km/h 64.5% 0.0 mm
08:49 18.7 °C 11.7 °C 1016.6 hPa OSO 6.9 km/h 13 km/h 63.8% 0.0 mm
08:54 19 °C 11.8 °C 1016.5 hPa OSO 6.9 km/h 12.9 km/h 63% 0.0 mm
08:59 19.2 °C 11.8 °C 1016.5 hPa OSO 6.5 km/h 11.9 km/h 62% 0.0 mm
09:04 19.4 °C 11.7 °C 1016.5 hPa OSO 5.8 km/h 11.9 km/h 61% 0.0 mm
09:09 19.6 °C 11.8 °C 1016.5 hPa SSO 6.4 km/h 11.9 km/h 60.7% 0.0 mm
09:14 19.8 °C 11.8 °C 1016.5 hPa SSO 7.6 km/h 13 km/h 60% 0.0 mm
09:19 20 °C 12 °C 1016.6 hPa OSO 7.6 km/h 12.9 km/h 60% 0.0 mm
09:24 20.2 °C 12 °C 1016.6 hPa OSO 7.6 km/h 11.1 km/h 59% 0.0 mm
09:29 20.4 °C 11.9 °C 1016.6 hPa OSO 6.9 km/h 11.3 km/h 58% 0.0 mm
09:34 20.6 °C 11.9 °C 1016.6 hPa Oeste 5.8 km/h 11.1 km/h 57.4% 0.0 mm
09:39 20.7 °C 11.9 °C 1016.5 hPa Oeste 6 km/h 11.9 km/h 57% 0.0 mm
09:44 20.7 °C 11.9 °C 1016.5 hPa Oeste 6.5 km/h 11.3 km/h 57% 0.0 mm
09:49 20.8 °C 12 °C 1016.5 hPa Oeste 5.9 km/h 9.7 km/h 57% 0.0 mm
09:54 21.1 °C 12 °C 1016.4 hPa OSO 5 km/h 9.7 km/h 56.2% 0.0 mm
09:59 21.3 °C 12.1 °C 1016.4 hPa Oeste 4.9 km/h 8.4 km/h 55.9% 0.0 mm
10:04 21.6 °C 12.1 °C 1016.4 hPa NO 4.7 km/h 8 km/h 55% 0.0 mm
10:09 21.8 °C 12.1 °C 1016.4 hPa Oeste 4.4 km/h 8 km/h 54.3% 0.0 mm
10:14 22 °C 12.1 °C 1016.4 hPa NO 3.9 km/h 9.3 km/h 53.3% 0.0 mm
10:19 22.3 °C 12.2 °C 1016.4 hPa NO 3.6 km/h 9.7 km/h 52.8% 0.0 mm
10:24 22.5 °C 12.1 °C 1016.2 hPa OSO 3.2 km/h 8 km/h 51.9% 0.0 mm
10:29 22.8 °C 12.2 °C 1016.2 hPa ONO 3.2 km/h 8 km/h 51.4% 0.0 mm
10:34 23.1 °C 12.4 °C 1016.2 hPa NE 3.2 km/h 5.8 km/h 50.9% 0.0 mm
10:39 23.6 °C 12.4 °C 1016.2 hPa Oeste 3.1 km/h 7.6 km/h 49.3% 0.0 mm
10:44 23.7 °C 11.8 °C 1016.2 hPa ONO 2.9 km/h 8 km/h 47.2% 0.0 mm
10:49 23.8 °C 11.6 °C 1016.2 hPa Oeste 2.9 km/h 8 km/h 46.4% 0.0 mm
10:54 24 °C 11.6 °C 1016.1 hPa ONO 2.9 km/h 8 km/h 45.7% 0.0 mm
10:59 24.4 °C 11.2 °C 1016.1 hPa ONO 2.9 km/h 9.3 km/h 43.5% 0.0 mm
11:04 24.6 °C 10.9 °C 1016.1 hPa Oeste 2.9 km/h 9.7 km/h 42.2% 0.0 mm
11:09 24.6 °C 10.8 °C 1016.0 hPa ONO 3.5 km/h 9.7 km/h 42% 0.0 mm
11:14 24.8 °C 10.8 °C 1016.0 hPa ONO 4.7 km/h 8.4 km/h 41.4% 0.0 mm
11:19 25.2 °C 10.7 °C 1016.0 hPa NNO 4.2 km/h 9.5 km/h 40.3% 0.0 mm
11:24 25.3 °C 10.7 °C 1015.9 hPa ONO 3.2 km/h 9.7 km/h 39.9% 0.0 mm
11:29 25.3 °C 10.4 °C 1015.9 hPa NO 3.7 km/h 9.7 km/h 39% 0.0 mm
11:34 25.6 °C 10.6 °C 1015.9 hPa NO 4.7 km/h 9.7 km/h 39% 0.0 mm
11:39 25.9 °C 10.8 °C 1015.8 hPa ONO 4.4 km/h 9.5 km/h 38.6% 0.0 mm
11:44 26.1 °C 10.8 °C 1015.8 hPa ONO 3.9 km/h 9.7 km/h 38.4% 0.0 mm
11:49 26.2 °C 10.7 °C 1015.8 hPa NO 4.1 km/h 9.7 km/h 38% 0.0 mm
11:54 26.4 °C 10.9 °C 1015.7 hPa NE 4.7 km/h 9.7 km/h 38% 0.0 mm
11:59 26.8 °C 11.3 °C 1015.7 hPa NE 4.3 km/h 8.4 km/h 38% 0.0 mm
12:04 27.1 °C 11.5 °C 1015.7 hPa NE 3.9 km/h 9.5 km/h 37.7% 0.0 mm
12:09 27.3 °C 11.4 °C 1015.5 hPa NE 3.9 km/h 9.7 km/h 37% 0.0 mm
12:14 27.5 °C 11.5 °C 1015.5 hPa ENE 3.9 km/h 10 km/h 36.8% 0.0 mm
12:19 27.7 °C 11.6 °C 1015.5 hPa ENE 4.1 km/h 11.1 km/h 36.6% 0.0 mm
12:24 27.8 °C 11.7 °C 1015.3 hPa NNE 4.7 km/h 11.3 km/h 36.8% 0.0 mm
12:29 27.9 °C 12 °C 1015.3 hPa ENE 5 km/h 14.8 km/h 37.2% 0.0 mm
12:34 28 °C 11.9 °C 1015.3 hPa ESE 5.8 km/h 14.5 km/h 37% 0.0 mm
12:39 28.2 °C 12.1 °C 1015.2 hPa Este 5.5 km/h 13 km/h 37% 0.0 mm
12:44 28.2 °C 12 °C 1015.2 hPa NE 5 km/h 13.7 km/h 36.7% 0.0 mm
12:49 28.2 °C 11.8 °C 1015.2 hPa ENE 5.7 km/h 18.5 km/h 36.2% 0.0 mm
12:54 28.3 °C 11.7 °C 1014.9 hPa NE 7.6 km/h 19.3 km/h 35.7% 0.0 mm
12:59 28.4 °C 11.6 °C 1014.9 hPa ENE 7.3 km/h 19.3 km/h 35.3% 0.0 mm
13:04 28.6 °C 11.9 °C 1014.9 hPa Este 6.9 km/h 16.7 km/h 35.6% 0.0 mm
13:09 28.8 °C 11.9 °C 1014.9 hPa Este 6.9 km/h 16.1 km/h 35.2% 0.0 mm
13:14 28.8 °C 11.5 °C 1014.9 hPa SE 6.9 km/h 14.5 km/h 34.2% 0.0 mm
13:19 29.1 °C 10.5 °C 1014.9 hPa ESE 6.5 km/h 13 km/h 31.5% 0.0 mm
13:24 29.3 °C 11.6 °C 1014.5 hPa ENE 5.8 km/h 15.6 km/h 33.5% 0.0 mm
13:29 29.5 °C 11.6 °C 1014.5 hPa NNE 6.3 km/h 16.1 km/h 33.1% 0.0 mm
13:34 29.5 °C 11.4 °C 1014.5 hPa NE 7.6 km/h 16.1 km/h 32.7% 0.0 mm
13:39 29.6 °C 10.9 °C 1014.5 hPa NNE 7.4 km/h 14.5 km/h 31.6% 0.0 mm
13:44 29.7 °C 10.8 °C 1014.5 hPa NNE 6.9 km/h 12.2 km/h 31.1% 0.0 mm
13:49 30 °C 9.7 °C 1014.5 hPa SSE 6.4 km/h 16.4 km/h 28.4% 0.0 mm
13:54 30.1 °C 9.1 °C 1014.3 hPa ESE 5 km/h 20.4 km/h 27.1% 0.0 mm
13:59 30.2 °C 9.3 °C 1014.3 hPa SE 6 km/h 20.9 km/h 27.2% 0.0 mm
14:04 30.4 °C 8.9 °C 1014.3 hPa SE 7.6 km/h 23.7 km/h 26.2% 0.0 mm
14:09 30.3 °C 8.8 °C 1014.3 hPa ESE 9.7 km/h 24.1 km/h 26.3% 0.0 mm
14:14 30.3 °C 8.7 °C 1014.3 hPa SSE 13.7 km/h 24.1 km/h 26% 0.0 mm
14:19 30.4 °C 8.7 °C 1014.3 hPa ESE 12.5 km/h 22.5 km/h 26% 0.0 mm
14:24 30.4 °C 8.7 °C 1014.1 hPa ESE 10.3 km/h 22.5 km/h 26% 0.0 mm
14:29 30.5 °C 9.3 °C 1014.1 hPa ESE 10.6 km/h 22.5 km/h 26.9% 0.0 mm
14:34 30.7 °C 9.5 °C 1014.1 hPa ESE 11.1 km/h 22.5 km/h 26.9% 0.0 mm
14:39 30.7 °C 9.5 °C 1013.9 hPa ESE 11.8 km/h 22.5 km/h 27% 0.0 mm
14:44 30.6 °C 9.9 °C 1013.9 hPa Este 13 km/h 22.5 km/h 27.9% 0.0 mm
14:49 30.4 °C 10.5 °C 1013.9 hPa ESE 13.3 km/h 24.5 km/h 29.2% 0.0 mm
14:54 30.5 °C 10.7 °C 1013.8 hPa ESE 13.7 km/h 27.8 km/h 29.5% 0.0 mm
14:59 30.4 °C 11.4 °C 1013.8 hPa ESE 14.4 km/h 27.4 km/h 30.9% 0.0 mm
15:04 30.3 °C 11.3 °C 1013.8 hPa SSE 16.4 km/h 26.2 km/h 31% 0.0 mm
15:09 30.3 °C 12.1 °C 1013.6 hPa ESE 15.9 km/h 27.8 km/h 32.7% 0.0 mm
15:14 30.3 °C 12.1 °C 1013.6 hPa ESE 14.8 km/h 28.2 km/h 32.8% 0.0 mm
15:19 30.4 °C 12 °C 1013.6 hPa ESE 15.2 km/h 27.4 km/h 32.3% 0.0 mm
15:24 30.7 °C 12.1 °C 1013.5 hPa SE 16.1 km/h 25.9 km/h 32% 0.0 mm
15:29 30.7 °C 11.3 °C 1013.5 hPa SE 15.6 km/h 28.2 km/h 30.5% 0.0 mm
15:34 30.6 °C 11.5 °C 1013.5 hPa ESE 14.8 km/h 27.4 km/h 30.9% 0.0 mm
15:39 30.6 °C 11.4 °C 1013.5 hPa SE 15.9 km/h 28.2 km/h 30.7% 0.0 mm
15:44 30.4 °C 11.4 °C 1013.5 hPa SE 18 km/h 27.4 km/h 30.9% 0.0 mm
15:49 30.4 °C 11 °C 1013.5 hPa ESE 17.5 km/h 25.9 km/h 30.3% 0.0 mm
15:54 30.6 °C 11.2 °C 1013.4 hPa ESE 16.4 km/h 25.9 km/h 30.3% 0.0 mm
15:59 30.6 °C 11.4 °C 1013.4 hPa ESE 16.3 km/h 25.9 km/h 30.6% 0.0 mm
16:04 30.6 °C 12.2 °C 1013.4 hPa ESE 16.1 km/h 27.8 km/h 32.5% 0.0 mm
16:09 30.6 °C 13.1 °C 1013.4 hPa SE 16.2 km/h 33.3 km/h 34.4% 0.0 mm
16:14 30.3 °C 12.9 °C 1013.4 hPa ESE 16.4 km/h 33.8 km/h 34.3% 0.0 mm
16:19 30.5 °C 13.6 °C 1013.4 hPa ESE 17 km/h 31.5 km/h 35.7% 0.0 mm
16:24 30.6 °C 13.4 °C 1013.2 hPa ESE 18 km/h 32.2 km/h 35.1% 0.0 mm
16:29 30.6 °C 13.9 °C 1013.2 hPa ESE 17.5 km/h 30.6 km/h 36.2% 0.0 mm
16:34 30.5 °C 13.7 °C 1013.2 hPa ESE 16.4 km/h 29 km/h 35.9% 0.0 mm
16:39 30.3 °C 13.5 °C 1013.1 hPa ESE 16.4 km/h 27.8 km/h 35.9% 0.0 mm
16:44 30.3 °C 13.8 °C 1013.1 hPa ESE 16.4 km/h 27.8 km/h 36.5% 0.0 mm
16:49 30.4 °C 13.4 °C 1013.1 hPa ESE 16.4 km/h 27.4 km/h 35.4% 0.0 mm
16:54 30.4 °C 13.1 °C 1013.0 hPa ESE 16.4 km/h 27.4 km/h 34.6% 0.0 mm
16:59 30.3 °C 13.3 °C 1013.0 hPa ESE 16.4 km/h 27.8 km/h 35.4% 0.0 mm
17:04 30.4 °C 13.3 °C 1013.0 hPa ESE 16.4 km/h 31.7 km/h 35.3% 0.0 mm
17:09 30.4 °C 13.2 °C 1012.9 hPa ESE 16.4 km/h 32.2 km/h 35% 0.0 mm
17:14 30.2 °C 12.7 °C 1012.9 hPa ESE 16.4 km/h 33.3 km/h 34.2% 0.0 mm
17:19 30.1 °C 12.9 °C 1012.9 hPa SE 17.3 km/h 33.8 km/h 34.8% 0.0 mm
17:24 30.2 °C 12.3 °C 1012.8 hPa SE 19 km/h 30.6 km/h 33.2% 0.0 mm
17:29 30.2 °C 11.8 °C 1012.8 hPa SE 19 km/h 32.3 km/h 32.4% 0.0 mm
17:34 30.2 °C 11.6 °C 1012.8 hPa SE 19 km/h 33.8 km/h 31.9% 0.0 mm
17:39 30.3 °C 11.3 °C 1012.8 hPa ESE 18.1 km/h 27.8 km/h 31.1% 0.0 mm
17:44 30.2 °C 10.6 °C 1012.8 hPa ESE 16.4 km/h 28.2 km/h 29.9% 0.0 mm
17:49 30 °C 10.3 °C 1012.9 hPa SE 17.6 km/h 29.6 km/h 29.4% 0.0 mm
17:54 30.1 °C 9.9 °C 1012.9 hPa ESE 19.8 km/h 29.1 km/h 28.6% 0.0 mm
17:59 30.2 °C 9.7 °C 1012.9 hPa SE 18.5 km/h 29 km/h 28.1% 0.0 mm
18:04 30.1 °C 9.6 °C 1012.9 hPa SE 16.4 km/h 27.4 km/h 28% 0.0 mm
18:09 30.2 °C 9.7 °C 1012.9 hPa SE 16.4 km/h 25.7 km/h 28% 0.0 mm
18:14 30.2 °C 9.6 °C 1012.9 hPa SE 16.4 km/h 29.1 km/h 27.8% 0.0 mm
18:19 30 °C 9.7 °C 1012.9 hPa ESE 17 km/h 29.6 km/h 28.4% 0.0 mm
18:24 29.8 °C 9.7 °C 1012.8 hPa ESE 18 km/h 29.1 km/h 28.6% 0.0 mm
18:29 29.8 °C 9.8 °C 1012.8 hPa ESE 18.4 km/h 29.6 km/h 28.9% 0.0 mm
18:34 29.9 °C 10.2 °C 1012.8 hPa ESE 19 km/h 27.8 km/h 29.5% 0.0 mm
18:39 30 °C 10.4 °C 1012.7 hPa ESE 17.5 km/h 27.8 km/h 29.7% 0.0 mm
18:44 29.8 °C 10.7 °C 1012.7 hPa SE 14.8 km/h 29.8 km/h 30.7% 0.0 mm
18:49 29.6 °C 10.8 °C 1012.7 hPa SE 16.1 km/h 30.6 km/h 31.3% 0.0 mm
18:54 29.6 °C 11 °C 1012.6 hPa SE 18.4 km/h 29.1 km/h 31.8% 0.0 mm
18:59 29.4 °C 11.5 °C 1012.6 hPa SE 17.5 km/h 29.6 km/h 33% 0.0 mm
19:04 29.5 °C 11.7 °C 1012.7 hPa SE 16.1 km/h 27.8 km/h 33.3% 0.0 mm
19:09 29.3 °C 11.8 °C 1012.7 hPa ESE 15.9 km/h 27.8 km/h 34% 0.0 mm
19:14 29.1 °C 11.8 °C 1012.7 hPa ESE 15.6 km/h 29.6 km/h 34.3% 0.0 mm
19:19 29 °C 12 °C 1012.8 hPa SE 16.8 km/h 29 km/h 35% 0.0 mm
19:24 28.9 °C 12.1 °C 1012.8 hPa SE 19 km/h 29.6 km/h 35.5% 0.0 mm
19:29 28.9 °C 12.6 °C 1012.8 hPa ESE 18.4 km/h 27.4 km/h 36.6% 0.0 mm
19:34 28.8 °C 12.6 °C 1012.8 hPa ESE 17.2 km/h 28.2 km/h 37% 0.0 mm
19:39 28.6 °C 12.8 °C 1012.7 hPa ESE 17.8 km/h 33.5 km/h 37.7% 0.0 mm
19:44 28.4 °C 13 °C 1012.7 hPa ESE 19 km/h 33.8 km/h 38.7% 0.0 mm
19:49 28.3 °C 13 °C 1012.8 hPa ESE 18.4 km/h 29 km/h 38.9% 0.0 mm
19:54 28.3 °C 12.6 °C 1012.8 hPa SE 17.2 km/h 27.4 km/h 38% 0.0 mm
19:59 28.3 °C 12.9 °C 1012.8 hPa ESE 16.9 km/h 30.9 km/h 38.8% 0.0 mm
20:04 28.1 °C 12.6 °C 1012.8 hPa ESE 16.4 km/h 32.2 km/h 38.4% 0.0 mm
20:09 27.9 °C 12.7 °C 1012.8 hPa ESE 17.1 km/h 32.2 km/h 39% 0.0 mm
20:14 27.9 °C 12.6 °C 1012.8 hPa ESE 18.4 km/h 32.2 km/h 39% 0.0 mm
20:19 27.8 °C 12.6 °C 1012.9 hPa ESE 18.2 km/h 30.6 km/h 39.2% 0.0 mm
20:24 27.7 °C 12.9 °C 1012.9 hPa SE 18 km/h 31.5 km/h 39.9% 0.0 mm
20:29 27.6 °C 12.8 °C 1012.9 hPa ESE 17.1 km/h 32.2 km/h 40% 0.0 mm
20:34 27.5 °C 12.5 °C 1013.0 hPa ESE 15.6 km/h 27.8 km/h 39.5% 0.0 mm
20:39 27.3 °C 11.8 °C 1013.0 hPa ESE 15.8 km/h 27.4 km/h 38.1% 0.0 mm
20:44 27.2 °C 11.3 °C 1013.0 hPa ESE 16.1 km/h 29.8 km/h 37.2% 0.0 mm
20:49 26.9 °C 11 °C 1013.0 hPa ESE 16.2 km/h 30.6 km/h 37% 0.0 mm
20:54 26.8 °C 10.9 °C 1013.0 hPa ESE 16.4 km/h 27.8 km/h 37.2% 0.0 mm
20:59 26.6 °C 10.8 °C 1013.0 hPa ESE 15.8 km/h 24.1 km/h 37.2% 0.0 mm
21:04 26.4 °C 10.6 °C 1013.3 hPa ESE 14.8 km/h 28.2 km/h 37% 0.0 mm
21:09 26.3 °C 10.3 °C 1013.3 hPa ESE 15.3 km/h 28.2 km/h 36.7% 0.0 mm
21:14 26.2 °C 10 °C 1013.3 hPa ESE 16.1 km/h 27.8 km/h 35.9% 0.0 mm
21:19 26.1 °C 9.7 °C 1013.4 hPa ESE 16.2 km/h 27.8 km/h 35.7% 0.0 mm
21:24 25.9 °C 9.6 °C 1013.4 hPa ESE 16.4 km/h 27.4 km/h 35.9% 0.0 mm
21:29 25.8 °C 9.8 °C 1013.4 hPa ESE 15.5 km/h 22.2 km/h 36.4% 0.0 mm
21:34 25.7 °C 10 °C 1013.5 hPa ESE 14 km/h 22.5 km/h 37.4% 0.0 mm
21:39 25.6 °C 10.3 °C 1013.5 hPa ESE 13.2 km/h 20.9 km/h 38.3% 0.0 mm
21:44 25.5 °C 10.5 °C 1013.5 hPa ESE 11.9 km/h 20.9 km/h 39% 0.0 mm
21:49 25.4 °C 10.9 °C 1013.6 hPa Este 10 km/h 16.1 km/h 40% 0.0 mm
21:54 25.3 °C 11 °C 1013.6 hPa Este 6.5 km/h 13 km/h 40.7% 0.0 mm
21:59 25.2 °C 11 °C 1013.6 hPa NE 6.5 km/h 13 km/h 41% 0.0 mm
22:04 24.9 °C 10.8 °C 1013.7 hPa NE 6.5 km/h 13.7 km/h 41% 0.0 mm
22:09 24.8 °C 10.8 °C 1013.7 hPa NE 7.1 km/h 14.5 km/h 41.3% 0.0 mm
22:14 24.7 °C 11.1 °C 1013.7 hPa NE 8.4 km/h 15.6 km/h 42.4% 0.0 mm
22:19 24.6 °C 10.7 °C 1013.9 hPa NNE 8.8 km/h 17.2 km/h 41.7% 0.0 mm
22:24 24 °C 10.9 °C 1013.9 hPa NNE 9.5 km/h 18 km/h 43.5% 0.0 mm
22:29 23.5 °C 11.1 °C 1013.9 hPa NNE 10.4 km/h 17.7 km/h 45.9% 0.0 mm
22:34 23.1 °C 11.4 °C 1014.2 hPa NE 11.9 km/h 18.5 km/h 47.7% 0.0 mm
22:39 22.8 °C 11.7 °C 1014.2 hPa NNE 11.3 km/h 19.3 km/h 49.4% 0.0 mm
22:44 22.7 °C 11.9 °C 1014.2 hPa NE 10.3 km/h 16.4 km/h 50.7% 0.0 mm
22:49 22.5 °C 12.2 °C 1014.5 hPa NE 10.2 km/h 16.7 km/h 52.2% 0.0 mm
22:54 22.2 °C 12.5 °C 1014.5 hPa NE 10 km/h 20.4 km/h 53.9% 0.0 mm
22:59 22 °C 12.9 °C 1014.5 hPa NNE 10.7 km/h 20.9 km/h 56.1% 0.0 mm
23:04 21.8 °C 13.2 °C 1014.5 hPa NNE 11.9 km/h 14.8 km/h 57.9% 0.0 mm
23:09 21.7 °C 13.5 °C 1014.5 hPa NE 11.2 km/h 16.1 km/h 59.5% 0.0 mm
23:14 21.6 °C 13.8 °C 1014.5 hPa NE 10 km/h 16.7 km/h 61.1% 0.0 mm
23:19 21.5 °C 14 °C 1014.7 hPa NNE 9.8 km/h 16.1 km/h 62.3% 0.0 mm
23:24 21.3 °C 14.3 °C 1014.7 hPa NNE 9.5 km/h 18 km/h 64.2% 0.0 mm
23:29 21.2 °C 14.7 °C 1014.7 hPa NNE 9.7 km/h 19.3 km/h 66.5% 0.0 mm
23:34 21.1 °C 14.9 °C 1014.8 hPa NNE 10 km/h 16.4 km/h 68% 0.0 mm
23:39 20.9 °C 15.2 °C 1014.8 hPa NNE 10 km/h 16.7 km/h 69.7% 0.0 mm
23:44 20.8 °C 15.4 °C 1014.8 hPa NNE 10 km/h 16.1 km/h 71.4% 0.0 mm
23:49 20.7 °C 15.5 °C 1014.9 hPa NNE 10.1 km/h 16.7 km/h 72.4% 0.0 mm
23:54 20.6 °C 15.6 °C 1014.9 hPa NE 10.3 km/h 16.1 km/h 73% 0.0 mm
23:59 20.6 °C 15.7 °C 1014.9 hPa NE 10.3 km/h 18.5 km/h 73.8% 0.0 mm
Murcia-Puente Tocinos, España
Compliments of Weather Underground - 3 mb

La estación de MeteoMurcia.com, publica sus datos en los siguientes proyectos:

Weather Underground PWS IMURCIAP2 Meteoclimatic www.awekas.at

W3Counter
Web Analytics